sensor_id;sensor_type;location;lat;lon;timestamp;temperature;humidity
4279;DHT22;2153;47.744;10.580;2023-11-19T00:00:36;8.80;99.90
4279;DHT22;2153;47.744;10.580;2023-11-19T00:03:03;8.80;99.90
4279;DHT22;2153;47.744;10.580;2023-11-19T00:05:30;8.90;99.90
4279;DHT22;2153;47.744;10.580;2023-11-19T00:07:58;8.80;99.90
4279;DHT22;2153;47.744;10.580;2023-11-19T00:10:24;8.90;99.90
4279;DHT22;2153;47.744;10.580;2023-11-19T00:12:51;8.90;99.90
4279;DHT22;2153;47.744;10.580;2023-11-19T00:15:18;8.90;99.90
4279;DHT22;2153;47.744;10.580;2023-11-19T00:17:45;8.90;99.90
4279;DHT22;2153;47.744;10.580;2023-11-19T00:20:12;8.90;99.90
4279;DHT22;2153;47.744;10.580;2023-11-19T00:22:39;8.90;99.90
4279;DHT22;2153;47.744;10.580;2023-11-19T00:25:08;9.00;99.90
4279;DHT22;2153;47.744;10.580;2023-11-19T00:27:35;9.00;99.90
4279;DHT22;2153;47.744;10.580;2023-11-19T00:30:02;9.00;99.90
4279;DHT22;2153;47.744;10.580;2023-11-19T00:32:30;8.90;99.90
4279;DHT22;2153;47.744;10.580;2023-11-19T00:34:57;9.00;99.90
4279;DHT22;2153;47.744;10.580;2023-11-19T00:37:23;9.00;99.90
4279;DHT22;2153;47.744;10.580;2023-11-19T00:39:50;8.90;99.90
4279;DHT22;2153;47.744;10.580;2023-11-19T00:42:18;8.90;99.90
4279;DHT22;2153;47.744;10.580;2023-11-19T00:44:45;8.90;99.90
4279;DHT22;2153;47.744;10.580;2023-11-19T00:47:12;8.90;99.90
4279;DHT22;2153;47.744;10.580;2023-11-19T00:49:38;8.80;99.90
4279;DHT22;2153;47.744;10.580;2023-11-19T00:52:05;8.90;99.90
4279;DHT22;2153;47.744;10.580;2023-11-19T00:54:32;8.90;99.90
4279;DHT22;2153;47.744;10.580;2023-11-19T00:56:59;9.00;99.90
4279;DHT22;2153;47.744;10.580;2023-11-19T00:59:28;9.00;99.90
4279;DHT22;2153;47.744;10.580;2023-11-19T01:01:54;9.00;99.90
4279;DHT22;2153;47.744;10.580;2023-11-19T01:04:21;9.00;99.90
4279;DHT22;2153;47.744;10.580;2023-11-19T01:06:49;9.00;99.90
4279;DHT22;2153;47.744;10.580;2023-11-19T01:09:16;9.10;99.90
4279;DHT22;2153;47.744;10.580;2023-11-19T01:11:42;9.10;99.90
4279;DHT22;2153;47.744;10.580;2023-11-19T01:14:09;9.10;99.90
4279;DHT22;2153;47.744;10.580;2023-11-19T01:16:37;9.10;99.90
4279;DHT22;2153;47.744;10.580;2023-11-19T01:19:03;9.10;99.90
4279;DHT22;2153;47.744;10.580;2023-11-19T01:21:30;9.10;99.90
4279;DHT22;2153;47.744;10.580;2023-11-19T01:23:56;9.10;99.90
4279;DHT22;2153;47.744;10.580;2023-11-19T01:26:23;9.10;99.90
4279;DHT22;2153;47.744;10.580;2023-11-19T01:28:49;9.10;99.90
4279;DHT22;2153;47.744;10.580;2023-11-19T01:31:18;9.10;99.90
4279;DHT22;2153;47.744;10.580;2023-11-19T01:33:46;9.10;99.90
4279;DHT22;2153;47.744;10.580;2023-11-19T01:36:13;9.10;99.90
4279;DHT22;2153;47.744;10.580;2023-11-19T01:38:39;9.10;99.90
4279;DHT22;2153;47.744;10.580;2023-11-19T01:41:06;9.10;99.90
4279;DHT22;2153;47.744;10.580;2023-11-19T01:43:33;9.10;99.90
4279;DHT22;2153;47.744;10.580;2023-11-19T01:45:59;9.10;99.90
4279;DHT22;2153;47.744;10.580;2023-11-19T01:48:26;9.20;99.90
4279;DHT22;2153;47.744;10.580;2023-11-19T01:50:55;9.10;99.90
4279;DHT22;2153;47.744;10.580;2023-11-19T01:53:22;9.10;99.90
4279;DHT22;2153;47.744;10.580;2023-11-19T01:55:49;9.10;99.90
4279;DHT22;2153;47.744;10.580;2023-11-19T01:58:17;9.10;99.90
4279;DHT22;2153;47.744;10.580;2023-11-19T02:00:44;9.10;99.90
4279;DHT22;2153;47.744;10.580;2023-11-19T02:03:11;9.10;99.90
4279;DHT22;2153;47.744;10.580;2023-11-19T02:05:38;9.10;99.90
4279;DHT22;2153;47.744;10.580;2023-11-19T02:08:06;9.10;99.90
4279;DHT22;2153;47.744;10.580;2023-11-19T02:10:33;9.10;99.90
4279;DHT22;2153;47.744;10.580;2023-11-19T02:13:00;9.10;99.90
4279;DHT22;2153;47.744;10.580;2023-11-19T02:15:27;9.10;99.90
4279;DHT22;2153;47.744;10.580;2023-11-19T02:17:53;9.10;99.90
4279;DHT22;2153;47.744;10.580;2023-11-19T02:20:20;9.10;99.90
4279;DHT22;2153;47.744;10.580;2023-11-19T02:22:46;9.10;99.90
4279;DHT22;2153;47.744;10.580;2023-11-19T02:25:19;9.10;99.90
4279;DHT22;2153;47.744;10.580;2023-11-19T02:27:57;9.10;99.90
4279;DHT22;2153;47.744;10.580;2023-11-19T02:30:25;9.10;99.90
4279;DHT22;2153;47.744;10.580;2023-11-19T02:32:53;9.10;99.90
4279;DHT22;2153;47.744;10.580;2023-11-19T02:35:22;9.10;99.90
4279;DHT22;2153;47.744;10.580;2023-11-19T02:37:48;9.10;99.90
4279;DHT22;2153;47.744;10.580;2023-11-19T02:40:15;9.10;99.90
4279;DHT22;2153;47.744;10.580;2023-11-19T02:42:42;9.10;99.90
4279;DHT22;2153;47.744;10.580;2023-11-19T02:45:10;9.10;99.90
4279;DHT22;2153;47.744;10.580;2023-11-19T02:47:39;9.00;99.90
4279;DHT22;2153;47.744;10.580;2023-11-19T02:50:06;9.10;99.90
4279;DHT22;2153;47.744;10.580;2023-11-19T02:52:39;9.10;99.90
4279;DHT22;2153;47.744;10.580;2023-11-19T02:55:06;9.10;99.90
4279;DHT22;2153;47.744;10.580;2023-11-19T02:57:35;9.10;99.90
4279;DHT22;2153;47.744;10.580;2023-11-19T03:00:01;9.10;99.90
4279;DHT22;2153;47.744;10.580;2023-11-19T03:02:40;9.00;99.90
4279;DHT22;2153;47.744;10.580;2023-11-19T03:05:11;9.00;99.90
4279;DHT22;2153;47.744;10.580;2023-11-19T03:07:40;9.00;99.90
4279;DHT22;2153;47.744;10.580;2023-11-19T03:10:08;9.10;99.90
4279;DHT22;2153;47.744;10.580;2023-11-19T03:12:38;9.10;99.90
4279;DHT22;2153;47.744;10.580;2023-11-19T03:15:06;9.10;99.90
4279;DHT22;2153;47.744;10.580;2023-11-19T03:17:35;9.10;99.90
4279;DHT22;2153;47.744;10.580;2023-11-19T03:20:04;9.00;99.90
4279;DHT22;2153;47.744;10.580;2023-11-19T03:22:32;9.10;99.90
4279;DHT22;2153;47.744;10.580;2023-11-19T03:25:00;9.00;99.90
4279;DHT22;2153;47.744;10.580;2023-11-19T03:27:26;9.00;99.90
4279;DHT22;2153;47.744;10.580;2023-11-19T03:29:53;9.00;99.90
4279;DHT22;2153;47.744;10.580;2023-11-19T03:32:20;9.00;99.90
4279;DHT22;2153;47.744;10.580;2023-11-19T03:34:46;9.10;99.90
4279;DHT22;2153;47.744;10.580;2023-11-19T03:37:14;9.10;99.90
4279;DHT22;2153;47.744;10.580;2023-11-19T03:39:42;9.10;99.90
4279;DHT22;2153;47.744;10.580;2023-11-19T03:42:09;9.10;99.90
4279;DHT22;2153;47.744;10.580;2023-11-19T03:44:37;9.10;99.90
4279;DHT22;2153;47.744;10.580;2023-11-19T03:47:04;9.00;99.90
4279;DHT22;2153;47.744;10.580;2023-11-19T03:49:31;9.10;99.90
4279;DHT22;2153;47.744;10.580;2023-11-19T03:51:58;9.10;99.90
4279;DHT22;2153;47.744;10.580;2023-11-19T03:54:26;9.10;99.90
4279;DHT22;2153;47.744;10.580;2023-11-19T03:56:53;9.10;99.90
4279;DHT22;2153;47.744;10.580;2023-11-19T03:59:19;9.10;99.90
4279;DHT22;2153;47.744;10.580;2023-11-19T04:01:46;9.10;99.90
4279;DHT22;2153;47.744;10.580;2023-11-19T04:04:13;9.20;99.90
4279;DHT22;2153;47.744;10.580;2023-11-19T04:06:40;9.10;99.90
4279;DHT22;2153;47.744;10.580;2023-11-19T04:09:07;9.10;99.90
4279;DHT22;2153;47.744;10.580;2023-11-19T04:11:36;9.10;99.90
4279;DHT22;2153;47.744;10.580;2023-11-19T04:14:02;9.10;99.90
4279;DHT22;2153;47.744;10.580;2023-11-19T04:16:29;9.10;99.90
4279;DHT22;2153;47.744;10.580;2023-11-19T04:18:56;9.20;99.90
4279;DHT22;2153;47.744;10.580;2023-11-19T04:21:22;9.10;99.90
4279;DHT22;2153;47.744;10.580;2023-11-19T04:23:49;9.20;99.90
4279;DHT22;2153;47.744;10.580;2023-11-19T04:26:16;9.10;99.90
4279;DHT22;2153;47.744;10.580;2023-11-19T04:28:44;9.10;99.90
4279;DHT22;2153;47.744;10.580;2023-11-19T04:31:11;9.20;99.90
4279;DHT22;2153;47.744;10.580;2023-11-19T04:33:37;9.10;99.90
4279;DHT22;2153;47.744;10.580;2023-11-19T04:36:05;9.10;99.90
4279;DHT22;2153;47.744;10.580;2023-11-19T04:38:32;9.10;99.90
4279;DHT22;2153;47.744;10.580;2023-11-19T04:41:00;9.10;99.90
4279;DHT22;2153;47.744;10.580;2023-11-19T04:43:26;9.10;99.90
4279;DHT22;2153;47.744;10.580;2023-11-19T04:45:54;9.10;99.90
4279;DHT22;2153;47.744;10.580;2023-11-19T04:48:21;9.10;99.90
4279;DHT22;2153;47.744;10.580;2023-11-19T04:50:48;9.10;99.90
4279;DHT22;2153;47.744;10.580;2023-11-19T04:53:15;9.10;99.90
4279;DHT22;2153;47.744;10.580;2023-11-19T04:55:42;9.10;99.90
4279;DHT22;2153;47.744;10.580;2023-11-19T04:58:09;9.00;99.90
4279;DHT22;2153;47.744;10.580;2023-11-19T05:00:36;9.00;99.90
4279;DHT22;2153;47.744;10.580;2023-11-19T05:03:04;9.00;99.90
4279;DHT22;2153;47.744;10.580;2023-11-19T05:05:30;9.00;99.90
4279;DHT22;2153;47.744;10.580;2023-11-19T05:07:57;9.00;99.90
4279;DHT22;2153;47.744;10.580;2023-11-19T05:10:24;9.00;99.90
4279;DHT22;2153;47.744;10.580;2023-11-19T05:12:51;8.90;99.90
4279;DHT22;2153;47.744;10.580;2023-11-19T05:15:18;9.00;99.90
4279;DHT22;2153;47.744;10.580;2023-11-19T05:17:44;9.00;99.90
4279;DHT22;2153;47.744;10.580;2023-11-19T05:20:13;8.90;99.90
4279;DHT22;2153;47.744;10.580;2023-11-19T05:22:40;8.90;99.90
4279;DHT22;2153;47.744;10.580;2023-11-19T05:25:07;9.00;99.90
4279;DHT22;2153;47.744;10.580;2023-11-19T05:27:34;9.00;99.90
4279;DHT22;2153;47.744;10.580;2023-11-19T05:30:01;9.00;99.90
4279;DHT22;2153;47.744;10.580;2023-11-19T05:32:28;9.00;99.90
4279;DHT22;2153;47.744;10.580;2023-11-19T05:34:54;9.00;99.90
4279;DHT22;2153;47.744;10.580;2023-11-19T05:37:22;9.00;99.90
4279;DHT22;2153;47.744;10.580;2023-11-19T05:39:49;9.00;99.90
4279;DHT22;2153;47.744;10.580;2023-11-19T05:42:15;9.00;99.90
4279;DHT22;2153;47.744;10.580;2023-11-19T05:44:42;9.00;99.90
4279;DHT22;2153;47.744;10.580;2023-11-19T05:47:09;9.00;99.90
4279;DHT22;2153;47.744;10.580;2023-11-19T05:49:36;9.00;99.90
4279;DHT22;2153;47.744;10.580;2023-11-19T05:52:03;9.00;99.90
4279;DHT22;2153;47.744;10.580;2023-11-19T05:54:34;9.00;99.90
4279;DHT22;2153;47.744;10.580;2023-11-19T05:57:03;8.90;99.90
4279;DHT22;2153;47.744;10.580;2023-11-19T05:59:30;8.90;99.90
4279;DHT22;2153;47.744;10.580;2023-11-19T06:01:58;8.90;99.90
4279;DHT22;2153;47.744;10.580;2023-11-19T06:04:25;8.90;99.90
4279;DHT22;2153;47.744;10.580;2023-11-19T06:06:52;8.90;99.90
4279;DHT22;2153;47.744;10.580;2023-11-19T06:09:20;8.80;99.90
4279;DHT22;2153;47.744;10.580;2023-11-19T06:11:50;8.90;99.90
4279;DHT22;2153;47.744;10.580;2023-11-19T06:14:17;8.90;99.90
4279;DHT22;2153;47.744;10.580;2023-11-19T06:16:44;8.90;99.90
4279;DHT22;2153;47.744;10.580;2023-11-19T06:19:11;9.00;99.90
4279;DHT22;2153;47.744;10.580;2023-11-19T06:21:38;8.90;99.90
4279;DHT22;2153;47.744;10.580;2023-11-19T06:24:05;8.90;99.90
4279;DHT22;2153;47.744;10.580;2023-11-19T06:26:32;8.90;99.90
4279;DHT22;2153;47.744;10.580;2023-11-19T06:29:00;8.90;99.90
4279;DHT22;2153;47.744;10.580;2023-11-19T06:31:26;8.90;99.90
4279;DHT22;2153;47.744;10.580;2023-11-19T06:33:53;9.00;99.90
4279;DHT22;2153;47.744;10.580;2023-11-19T06:36:20;9.00;99.90
4279;DHT22;2153;47.744;10.580;2023-11-19T06:38:47;9.00;99.90
4279;DHT22;2153;47.744;10.580;2023-11-19T06:41:13;9.00;99.90
4279;DHT22;2153;47.744;10.580;2023-11-19T06:43:40;9.00;99.90
4279;DHT22;2153;47.744;10.580;2023-11-19T06:46:15;9.10;99.90
4279;DHT22;2153;47.744;10.580;2023-11-19T06:48:42;9.00;99.90
4279;DHT22;2153;47.744;10.580;2023-11-19T06:51:09;9.00;99.90
4279;DHT22;2153;47.744;10.580;2023-11-19T06:53:36;9.00;99.90
4279;DHT22;2153;47.744;10.580;2023-11-19T06:56:03;9.10;99.90
4279;DHT22;2153;47.744;10.580;2023-11-19T06:58:31;9.00;99.90
4279;DHT22;2153;47.744;10.580;2023-11-19T07:01:00;9.10;99.90
4279;DHT22;2153;47.744;10.580;2023-11-19T07:03:28;9.10;99.90
4279;DHT22;2153;47.744;10.580;2023-11-19T07:05:54;9.10;99.90
4279;DHT22;2153;47.744;10.580;2023-11-19T07:08:21;9.10;99.90
4279;DHT22;2153;47.744;10.580;2023-11-19T07:10:48;9.20;99.90
4279;DHT22;2153;47.744;10.580;2023-11-19T07:13:14;9.20;99.90
4279;DHT22;2153;47.744;10.580;2023-11-19T07:15:41;9.20;99.90
4279;DHT22;2153;47.744;10.580;2023-11-19T07:18:08;9.20;99.90
4279;DHT22;2153;47.744;10.580;2023-11-19T07:20:35;9.20;99.90
4279;DHT22;2153;47.744;10.580;2023-11-19T07:23:03;9.20;99.90
4279;DHT22;2153;47.744;10.580;2023-11-19T07:25:29;9.30;99.90
4279;DHT22;2153;47.744;10.580;2023-11-19T07:27:56;9.30;99.90
4279;DHT22;2153;47.744;10.580;2023-11-19T07:30:22;9.30;99.90
4279;DHT22;2153;47.744;10.580;2023-11-19T07:32:49;9.30;99.90
4279;DHT22;2153;47.744;10.580;2023-11-19T07:35:16;9.30;99.90
4279;DHT22;2153;47.744;10.580;2023-11-19T07:37:45;9.40;99.90
4279;DHT22;2153;47.744;10.580;2023-11-19T07:40:13;9.30;99.90
4279;DHT22;2153;47.744;10.580;2023-11-19T07:42:39;9.30;99.90
4279;DHT22;2153;47.744;10.580;2023-11-19T07:45:06;9.30;99.90
4279;DHT22;2153;47.744;10.580;2023-11-19T07:47:33;9.30;99.90
4279;DHT22;2153;47.744;10.580;2023-11-19T07:49:59;9.30;99.90
4279;DHT22;2153;47.744;10.580;2023-11-19T07:52:26;9.30;99.90
4279;DHT22;2153;47.744;10.580;2023-11-19T07:54:55;9.40;99.90
4279;DHT22;2153;47.744;10.580;2023-11-19T07:57:21;9.40;99.90
4279;DHT22;2153;47.744;10.580;2023-11-19T07:59:49;9.40;99.90
4279;DHT22;2153;47.744;10.580;2023-11-19T08:02:16;9.40;99.90
4279;DHT22;2153;47.744;10.580;2023-11-19T08:04:42;9.50;99.90
4279;DHT22;2153;47.744;10.580;2023-11-19T08:07:11;9.50;99.90
4279;DHT22;2153;47.744;10.580;2023-11-19T08:09:37;9.50;99.90
4279;DHT22;2153;47.744;10.580;2023-11-19T08:12:05;9.50;99.90
4279;DHT22;2153;47.744;10.580;2023-11-19T08:14:32;9.50;99.90
4279;DHT22;2153;47.744;10.580;2023-11-19T08:16:59;9.50;99.90
4279;DHT22;2153;47.744;10.580;2023-11-19T08:19:26;9.50;99.90
4279;DHT22;2153;47.744;10.580;2023-11-19T08:21:52;9.50;99.90
4279;DHT22;2153;47.744;10.580;2023-11-19T08:24:19;9.50;99.90
4279;DHT22;2153;47.744;10.580;2023-11-19T08:26:45;9.50;99.90
4279;DHT22;2153;47.744;10.580;2023-11-19T08:29:13;9.50;99.90
4279;DHT22;2153;47.744;10.580;2023-11-19T08:31:40;9.50;99.90
4279;DHT22;2153;47.744;10.580;2023-11-19T08:34:06;9.50;99.90
4279;DHT22;2153;47.744;10.580;2023-11-19T08:36:34;9.50;99.90
4279;DHT22;2153;47.744;10.580;2023-11-19T08:39:00;9.50;99.90
4279;DHT22;2153;47.744;10.580;2023-11-19T08:41:28;9.60;99.90
4279;DHT22;2153;47.744;10.580;2023-11-19T08:43:54;9.60;99.90
4279;DHT22;2153;47.744;10.580;2023-11-19T08:46:23;9.60;99.90
4279;DHT22;2153;47.744;10.580;2023-11-19T08:48:50;9.60;99.90
4279;DHT22;2153;47.744;10.580;2023-11-19T08:51:17;9.70;99.90
4279;DHT22;2153;47.744;10.580;2023-11-19T08:53:43;9.70;99.90
4279;DHT22;2153;47.744;10.580;2023-11-19T08:56:10;9.70;99.90
4279;DHT22;2153;47.744;10.580;2023-11-19T08:58:37;9.70;99.90
4279;DHT22;2153;47.744;10.580;2023-11-19T09:01:04;9.70;99.90
4279;DHT22;2153;47.744;10.580;2023-11-19T09:03:32;9.70;99.90
4279;DHT22;2153;47.744;10.580;2023-11-19T09:05:59;9.70;99.90
4279;DHT22;2153;47.744;10.580;2023-11-19T09:08:26;9.70;99.90
4279;DHT22;2153;47.744;10.580;2023-11-19T09:10:52;9.80;99.90
4279;DHT22;2153;47.744;10.580;2023-11-19T09:13:19;9.80;99.90
4279;DHT22;2153;47.744;10.580;2023-11-19T09:15:45;9.80;99.90
4279;DHT22;2153;47.744;10.580;2023-11-19T09:18:12;9.80;99.90
4279;DHT22;2153;47.744;10.580;2023-11-19T09:20:40;9.80;99.90
4279;DHT22;2153;47.744;10.580;2023-11-19T09:23:06;9.80;99.90
4279;DHT22;2153;47.744;10.580;2023-11-19T09:25:34;9.80;99.90
4279;DHT22;2153;47.744;10.580;2023-11-19T09:28:00;9.80;99.90
4279;DHT22;2153;47.744;10.580;2023-11-19T09:30:27;9.80;99.90
4279;DHT22;2153;47.744;10.580;2023-11-19T09:32:54;9.80;99.90
4279;DHT22;2153;47.744;10.580;2023-11-19T09:35:20;9.80;99.90
4279;DHT22;2153;47.744;10.580;2023-11-19T09:37:48;9.80;99.90
4279;DHT22;2153;47.744;10.580;2023-11-19T09:40:15;9.80;99.90
4279;DHT22;2153;47.744;10.580;2023-11-19T09:42:43;9.90;99.90
4279;DHT22;2153;47.744;10.580;2023-11-19T09:45:12;9.90;99.90
4279;DHT22;2153;47.744;10.580;2023-11-19T09:47:39;9.90;99.90
4279;DHT22;2153;47.744;10.580;2023-11-19T09:50:05;9.90;99.90
4279;DHT22;2153;47.744;10.580;2023-11-19T09:52:32;10.00;99.90
4279;DHT22;2153;47.744;10.580;2023-11-19T09:55:00;10.00;99.90
4279;DHT22;2153;47.744;10.580;2023-11-19T09:57:27;10.00;99.90
4279;DHT22;2153;47.744;10.580;2023-11-19T09:59:54;10.00;99.90
4279;DHT22;2153;47.744;10.580;2023-11-19T10:02:21;10.00;99.90
4279;DHT22;2153;47.744;10.580;2023-11-19T10:04:48;10.00;99.90
4279;DHT22;2153;47.744;10.580;2023-11-19T10:07:15;10.10;99.90
4279;DHT22;2153;47.744;10.580;2023-11-19T10:09:42;10.10;99.90
4279;DHT22;2153;47.744;10.580;2023-11-19T10:12:10;10.00;99.90
4279;DHT22;2153;47.744;10.580;2023-11-19T10:14:36;10.00;99.90
4279;DHT22;2153;47.744;10.580;2023-11-19T10:17:04;10.00;99.90
4279;DHT22;2153;47.744;10.580;2023-11-19T10:19:33;10.10;99.90
4279;DHT22;2153;47.744;10.580;2023-11-19T10:22:02;10.20;99.90
4279;DHT22;2153;47.744;10.580;2023-11-19T10:24:33;10.10;99.90
4279;DHT22;2153;47.744;10.580;2023-11-19T10:27:00;10.10;99.90
4279;DHT22;2153;47.744;10.580;2023-11-19T10:29:30;10.10;99.90
4279;DHT22;2153;47.744;10.580;2023-11-19T10:31:57;10.10;99.90
4279;DHT22;2153;47.744;10.580;2023-11-19T10:34:24;10.10;99.90
4279;DHT22;2153;47.744;10.580;2023-11-19T10:36:51;10.20;99.90
4279;DHT22;2153;47.744;10.580;2023-11-19T10:39:18;10.20;99.90
4279;DHT22;2153;47.744;10.580;2023-11-19T10:41:46;10.20;99.90
4279;DHT22;2153;47.744;10.580;2023-11-19T10:44:12;10.30;99.90
4279;DHT22;2153;47.744;10.580;2023-11-19T10:46:58;10.30;99.90
4279;DHT22;2153;47.744;10.580;2023-11-19T10:49:25;10.40;99.90
4279;DHT22;2153;47.744;10.580;2023-11-19T10:51:52;10.40;99.90
4279;DHT22;2153;47.744;10.580;2023-11-19T10:54:19;10.50;99.90
4279;DHT22;2153;47.744;10.580;2023-11-19T10:56:47;10.50;99.90
4279;DHT22;2153;47.744;10.580;2023-11-19T10:59:18;10.50;99.90
4279;DHT22;2153;47.744;10.580;2023-11-19T11:01:46;10.50;99.90
4279;DHT22;2153;47.744;10.580;2023-11-19T11:04:19;10.50;99.90
4279;DHT22;2153;47.744;10.580;2023-11-19T11:06:46;10.50;99.90
4279;DHT22;2153;47.744;10.580;2023-11-19T11:09:13;10.50;99.90
4279;DHT22;2153;47.744;10.580;2023-11-19T11:11:40;10.50;99.90
4279;DHT22;2153;47.744;10.580;2023-11-19T11:14:09;10.60;99.90
4279;DHT22;2153;47.744;10.580;2023-11-19T11:16:38;10.60;99.90
4279;DHT22;2153;47.744;10.580;2023-11-19T11:19:08;10.70;99.90
4279;DHT22;2153;47.744;10.580;2023-11-19T11:21:36;10.70;99.90
4279;DHT22;2153;47.744;10.580;2023-11-19T11:27:06;10.80;99.90
4279;DHT22;2153;47.744;10.580;2023-11-19T11:29:37;10.80;99.90
4279;DHT22;2153;47.744;10.580;2023-11-19T11:32:07;10.90;99.90
4279;DHT22;2153;47.744;10.580;2023-11-19T11:34:42;10.80;99.90
4279;DHT22;2153;47.744;10.580;2023-11-19T11:37:16;10.80;99.90
4279;DHT22;2153;47.744;10.580;2023-11-19T11:39:45;10.80;99.90
4279;DHT22;2153;47.744;10.580;2023-11-19T11:42:30;10.70;99.90
4279;DHT22;2153;47.744;10.580;2023-11-19T11:45:01;10.70;99.90
4279;DHT22;2153;47.744;10.580;2023-11-19T11:50:15;10.70;99.90
4279;DHT22;2153;47.744;10.580;2023-11-19T11:55:26;10.60;99.90
4279;DHT22;2153;47.744;10.580;2023-11-19T11:57:53;10.50;99.90
4279;DHT22;2153;47.744;10.580;2023-11-19T12:00:21;10.50;99.90
4279;DHT22;2153;47.744;10.580;2023-11-19T12:02:49;10.50;99.90
4279;DHT22;2153;47.744;10.580;2023-11-19T12:05:16;10.40;99.90
4279;DHT22;2153;47.744;10.580;2023-11-19T12:07:45;10.40;99.90
4279;DHT22;2153;47.744;10.580;2023-11-19T12:10:20;10.40;99.90
4279;DHT22;2153;47.744;10.580;2023-11-19T12:12:48;10.40;99.90
4279;DHT22;2153;47.744;10.580;2023-11-19T12:15:15;10.40;99.90
4279;DHT22;2153;47.744;10.580;2023-11-19T12:17:42;10.50;99.90
4279;DHT22;2153;47.744;10.580;2023-11-19T12:20:09;10.40;99.90
4279;DHT22;2153;47.744;10.580;2023-11-19T12:22:37;10.40;99.90
4279;DHT22;2153;47.744;10.580;2023-11-19T12:25:04;10.50;99.90
4279;DHT22;2153;47.744;10.580;2023-11-19T12:27:31;10.40;99.90
4279;DHT22;2153;47.744;10.580;2023-11-19T12:30:00;10.40;99.90
4279;DHT22;2153;47.744;10.580;2023-11-19T12:32:37;10.40;99.90
4279;DHT22;2153;47.744;10.580;2023-11-19T12:35:03;10.40;99.90
4279;DHT22;2153;47.744;10.580;2023-11-19T12:37:30;10.40;99.90
4279;DHT22;2153;47.744;10.580;2023-11-19T12:39:56;10.40;99.90
4279;DHT22;2153;47.744;10.580;2023-11-19T12:42:34;10.40;99.90
4279;DHT22;2153;47.744;10.580;2023-11-19T12:45:02;10.40;99.90
4279;DHT22;2153;47.744;10.580;2023-11-19T12:47:29;10.40;99.90
4279;DHT22;2153;47.744;10.580;2023-11-19T12:49:56;10.40;99.90
4279;DHT22;2153;47.744;10.580;2023-11-19T12:52:22;10.30;99.90
4279;DHT22;2153;47.744;10.580;2023-11-19T12:54:49;10.30;99.90
4279;DHT22;2153;47.744;10.580;2023-11-19T12:57:16;10.30;99.90
4279;DHT22;2153;47.744;10.580;2023-11-19T12:59:53;10.30;99.90
4279;DHT22;2153;47.744;10.580;2023-11-19T13:02:21;10.30;99.90
4279;DHT22;2153;47.744;10.580;2023-11-19T13:04:48;10.40;99.90
4279;DHT22;2153;47.744;10.580;2023-11-19T13:07:20;10.40;99.90
4279;DHT22;2153;47.744;10.580;2023-11-19T13:09:46;10.40;99.90
4279;DHT22;2153;47.744;10.580;2023-11-19T13:12:13;10.40;99.90
4279;DHT22;2153;47.744;10.580;2023-11-19T13:14:40;10.50;99.90
4279;DHT22;2153;47.744;10.580;2023-11-19T13:17:07;10.60;99.90
4279;DHT22;2153;47.744;10.580;2023-11-19T13:19:35;10.50;99.90
4279;DHT22;2153;47.744;10.580;2023-11-19T13:22:02;10.40;99.90
4279;DHT22;2153;47.744;10.580;2023-11-19T13:24:29;10.50;99.90
4279;DHT22;2153;47.744;10.580;2023-11-19T13:26:55;10.50;99.90
4279;DHT22;2153;47.744;10.580;2023-11-19T13:29:22;10.50;99.90
4279;DHT22;2153;47.744;10.580;2023-11-19T13:31:48;10.50;99.90
4279;DHT22;2153;47.744;10.580;2023-11-19T13:34:15;10.50;99.90
4279;DHT22;2153;47.744;10.580;2023-11-19T13:36:43;10.50;99.90
4279;DHT22;2153;47.744;10.580;2023-11-19T13:39:10;10.50;99.90
4279;DHT22;2153;47.744;10.580;2023-11-19T13:41:37;10.50;99.90
4279;DHT22;2153;47.744;10.580;2023-11-19T13:44:04;10.50;99.90
4279;DHT22;2153;47.744;10.580;2023-11-19T13:46:32;10.50;99.90
4279;DHT22;2153;47.744;10.580;2023-11-19T13:48:59;10.50;99.90
4279;DHT22;2153;47.744;10.580;2023-11-19T13:51:25;10.50;99.90
4279;DHT22;2153;47.744;10.580;2023-11-19T13:53:53;10.50;99.90
4279;DHT22;2153;47.744;10.580;2023-11-19T13:56:20;10.50;99.90
4279;DHT22;2153;47.744;10.580;2023-11-19T13:58:47;10.60;99.90
4279;DHT22;2153;47.744;10.580;2023-11-19T14:01:14;10.50;99.90
4279;DHT22;2153;47.744;10.580;2023-11-19T14:03:40;10.60;99.90
4279;DHT22;2153;47.744;10.580;2023-11-19T14:06:07;10.60;99.90
4279;DHT22;2153;47.744;10.580;2023-11-19T14:08:34;10.60;99.90
4279;DHT22;2153;47.744;10.580;2023-11-19T14:11:02;10.60;99.90
4279;DHT22;2153;47.744;10.580;2023-11-19T14:13:30;10.70;99.90
4279;DHT22;2153;47.744;10.580;2023-11-19T14:15:57;10.70;99.90
4279;DHT22;2153;47.744;10.580;2023-11-19T14:18:23;10.60;99.90
4279;DHT22;2153;47.744;10.580;2023-11-19T14:20:50;10.70;99.90
4279;DHT22;2153;47.744;10.580;2023-11-19T14:23:17;10.70;99.90
4279;DHT22;2153;47.744;10.580;2023-11-19T14:25:43;10.70;99.90
4279;DHT22;2153;47.744;10.580;2023-11-19T14:28:11;10.70;99.90
4279;DHT22;2153;47.744;10.580;2023-11-19T14:30:38;10.70;99.90
4279;DHT22;2153;47.744;10.580;2023-11-19T14:33:06;10.70;99.90
4279;DHT22;2153;47.744;10.580;2023-11-19T14:35:33;10.70;99.90
4279;DHT22;2153;47.744;10.580;2023-11-19T14:38:00;10.70;99.90
4279;DHT22;2153;47.744;10.580;2023-11-19T14:40:30;10.60;99.90
4279;DHT22;2153;47.744;10.580;2023-11-19T14:42:56;10.60;99.90
4279;DHT22;2153;47.744;10.580;2023-11-19T14:45:24;10.60;99.90
4279;DHT22;2153;47.744;10.580;2023-11-19T14:47:51;10.70;99.90
4279;DHT22;2153;47.744;10.580;2023-11-19T14:50:19;10.60;99.90
4279;DHT22;2153;47.744;10.580;2023-11-19T14:52:46;10.60;99.90
4279;DHT22;2153;47.744;10.580;2023-11-19T14:55:13;10.60;99.90
4279;DHT22;2153;47.744;10.580;2023-11-19T14:57:39;10.50;99.90
4279;DHT22;2153;47.744;10.580;2023-11-19T15:00:08;10.50;99.90
4279;DHT22;2153;47.744;10.580;2023-11-19T15:02:40;10.50;99.90
4279;DHT22;2153;47.744;10.580;2023-11-19T15:05:07;10.50;99.90
4279;DHT22;2153;47.744;10.580;2023-11-19T15:07:35;10.50;99.90
4279;DHT22;2153;47.744;10.580;2023-11-19T15:10:03;10.50;99.90
4279;DHT22;2153;47.744;10.580;2023-11-19T15:12:34;10.50;99.90
4279;DHT22;2153;47.744;10.580;2023-11-19T15:15:06;10.50;99.90
4279;DHT22;2153;47.744;10.580;2023-11-19T15:17:33;10.50;99.90
4279;DHT22;2153;47.744;10.580;2023-11-19T15:20:01;10.50;99.90
4279;DHT22;2153;47.744;10.580;2023-11-19T15:22:28;10.50;99.90
4279;DHT22;2153;47.744;10.580;2023-11-19T15:24:54;10.50;99.90
4279;DHT22;2153;47.744;10.580;2023-11-19T15:27:21;10.50;99.90
4279;DHT22;2153;47.744;10.580;2023-11-19T15:29:48;10.50;99.90
4279;DHT22;2153;47.744;10.580;2023-11-19T15:32:14;10.50;99.90
4279;DHT22;2153;47.744;10.580;2023-11-19T15:34:41;10.50;99.90
4279;DHT22;2153;47.744;10.580;2023-11-19T15:37:09;10.40;99.90
4279;DHT22;2153;47.744;10.580;2023-11-19T15:39:38;10.50;99.90
4279;DHT22;2153;47.744;10.580;2023-11-19T15:42:05;10.50;99.90
4279;DHT22;2153;47.744;10.580;2023-11-19T15:44:31;10.50;99.90
4279;DHT22;2153;47.744;10.580;2023-11-19T15:46:58;10.50;99.90
4279;DHT22;2153;47.744;10.580;2023-11-19T15:49:25;10.50;99.90
4279;DHT22;2153;47.744;10.580;2023-11-19T15:51:53;10.40;99.90
4279;DHT22;2153;47.744;10.580;2023-11-19T15:54:21;10.30;99.90
4279;DHT22;2153;47.744;10.580;2023-11-19T15:56:47;10.30;99.90
4279;DHT22;2153;47.744;10.580;2023-11-19T15:59:14;10.30;99.90
4279;DHT22;2153;47.744;10.580;2023-11-19T16:01:41;10.20;99.90
4279;DHT22;2153;47.744;10.580;2023-11-19T16:04:07;10.20;99.90